createdAt,value
2017-03-31T00:00:06.146Z,0
2017-03-31T00:01:15.360Z,0
2017-03-31T00:02:24.647Z,0
2017-03-31T00:03:33.543Z,0
2017-03-31T00:04:42.435Z,0
2017-03-31T00:05:51.325Z,0
2017-03-31T00:07:00.217Z,0
2017-03-31T00:08:09.211Z,0
2017-03-31T00:09:18.099Z,0
2017-03-31T00:10:27.313Z,0
2017-03-31T00:11:36.866Z,0
2017-03-31T00:12:45.759Z,0
2017-03-31T00:13:54.948Z,0
2017-03-31T00:15:04.161Z,0
2017-03-31T00:16:13.050Z,0
2017-03-31T00:17:21.940Z,0
2017-03-31T00:18:31.150Z,0
2017-03-31T00:19:40.037Z,0
2017-03-31T00:20:48.928Z,0
2017-03-31T00:21:57.818Z,0
2017-03-31T00:23:06.711Z,0
2017-03-31T00:24:15.600Z,0
2017-03-31T00:25:24.588Z,0
2017-03-31T00:26:33.476Z,0
2017-03-31T00:27:42.726Z,0
2017-03-31T00:28:51.614Z,0
2017-03-31T00:30:00.504Z,0
2017-03-31T00:31:09.544Z,0
2017-03-31T00:32:18.434Z,0
2017-03-31T00:33:27.320Z,0
2017-03-31T00:34:36.212Z,0
2017-03-31T00:35:45.107Z,0
2017-03-31T00:36:54.473Z,0
2017-03-31T00:38:03.357Z,0
2017-03-31T00:39:12.248Z,0
2017-03-31T00:40:21.134Z,0
2017-03-31T00:41:30.022Z,0
2017-03-31T00:42:39.385Z,0
2017-03-31T00:43:48.275Z,0
2017-03-31T00:44:57.169Z,0
2017-03-31T00:46:06.385Z,0
2017-03-31T00:47:15.275Z,0
2017-03-31T00:48:24.315Z,0
2017-03-31T00:49:33.210Z,0
2017-03-31T00:50:42.429Z,0
2017-03-31T00:51:51.316Z,0
2017-03-31T00:53:00.566Z,0
2017-03-31T00:54:09.507Z,0
2017-03-31T00:55:18.395Z,0
2017-03-31T00:56:27.285Z,0
2017-03-31T00:57:36.209Z,0
2017-03-31T00:58:45.418Z,0
2017-03-31T00:59:54.462Z,0
2017-03-31T01:01:03.358Z,0
2017-03-31T01:02:12.244Z,0
2017-03-31T01:03:21.459Z,0
2017-03-31T01:04:30.350Z,0
2017-03-31T01:05:39.489Z,0
2017-03-31T01:06:48.379Z,0
2017-03-31T01:07:57.267Z,0
2017-03-31T01:09:06.156Z,0
2017-03-31T01:10:15.074Z,0
2017-03-31T01:11:23.960Z,0
2017-03-31T01:12:33.503Z,0
2017-03-31T01:13:42.724Z,0
2017-03-31T01:14:51.612Z,0
2017-03-31T01:16:00.505Z,0
2017-03-31T01:17:09.777Z,0
2017-03-31T01:18:18.665Z,0
2017-03-31T01:19:27.558Z,0
2017-03-31T01:20:36.450Z,0
2017-03-31T01:21:45.338Z,0
2017-03-31T01:22:54.599Z,0
2017-03-31T01:24:03.493Z,0
2017-03-31T01:25:12.383Z,0
2017-03-31T01:26:21.321Z,0
2017-03-31T01:27:30.218Z,0
2017-03-31T01:28:39.577Z,0
2017-03-31T01:29:48.802Z,0
2017-03-31T01:30:57.689Z,0
2017-03-31T01:32:06.582Z,0
2017-03-31T01:33:15.469Z,0
2017-03-31T01:34:24.684Z,0
2017-03-31T01:35:33.576Z,0
2017-03-31T01:36:42.464Z,0
2017-03-31T01:37:51.354Z,0
2017-03-31T01:39:00.276Z,0
2017-03-31T01:40:09.467Z,0
2017-03-31T01:41:18.356Z,0
2017-03-31T01:42:27.246Z,0
2017-03-31T01:43:36.135Z,0
2017-03-31T01:44:45.027Z,0
2017-03-31T01:45:53.966Z,0
2017-03-31T01:47:03.185Z,0
2017-03-31T01:48:12.081Z,0
2017-03-31T01:49:20.972Z,0
2017-03-31T01:50:30.187Z,0
2017-03-31T01:51:39.450Z,0
2017-03-31T01:52:48.664Z,0
2017-03-31T01:53:57.555Z,0
2017-03-31T01:55:06.448Z,0
2017-03-31T01:56:15.373Z,0
2017-03-31T01:57:24.741Z,0
2017-03-31T01:58:33.630Z,0
2017-03-31T01:59:42.843Z,0
2017-03-31T02:00:52.061Z,0
2017-03-31T02:02:01.277Z,0
2017-03-31T02:03:10.966Z,0
2017-03-31T02:04:20.179Z,0
2017-03-31T02:05:29.070Z,0
2017-03-31T02:06:37.963Z,0
2017-03-31T02:07:46.848Z,0
2017-03-31T02:08:56.053Z,0
2017-03-31T02:10:05.597Z,0
2017-03-31T02:11:14.484Z,0
2017-03-31T02:12:23.372Z,0
2017-03-31T02:13:32.266Z,0
2017-03-31T02:14:41.257Z,0
2017-03-31T02:15:50.475Z,0
2017-03-31T02:17:00.010Z,0
2017-03-31T02:18:08.932Z,0
2017-03-31T02:19:17.817Z,0
2017-03-31T02:20:26.852Z,0
2017-03-31T02:21:35.737Z,0
2017-03-31T02:22:44.631Z,0
2017-03-31T02:23:53.520Z,0
2017-03-31T02:25:02.410Z,0
2017-03-31T02:26:11.454Z,0
2017-03-31T02:27:20.666Z,0
2017-03-31T02:28:29.563Z,0
2017-03-31T02:29:38.455Z,0
2017-03-31T02:30:47.668Z,0
2017-03-31T02:31:56.885Z,0
2017-03-31T02:33:05.782Z,0
2017-03-31T02:34:14.669Z,0
2017-03-31T02:35:23.559Z,0
2017-03-31T02:36:33.101Z,0
2017-03-31T02:37:42.563Z,0
2017-03-31T02:38:51.448Z,0
2017-03-31T02:40:00.670Z,0
2017-03-31T02:41:09.554Z,0
2017-03-31T02:42:18.441Z,0
2017-03-31T02:43:27.953Z,0
2017-03-31T02:44:37.821Z,0
2017-03-31T02:45:46.720Z,0
2017-03-31T02:46:55.609Z,0
2017-03-31T02:48:04.529Z,0
2017-03-31T02:49:13.794Z,0
2017-03-31T02:50:22.712Z,0
2017-03-31T02:51:31.605Z,0
2017-03-31T02:52:40.496Z,0
2017-03-31T02:53:49.385Z,0
2017-03-31T02:54:58.895Z,0
2017-03-31T02:56:07.790Z,0
2017-03-31T02:57:16.678Z,0
2017-03-31T02:58:25.890Z,0
2017-03-31T02:59:34.774Z,0
2017-03-31T03:00:43.762Z,0
2017-03-31T03:01:52.646Z,0
2017-03-31T03:03:01.535Z,0
2017-03-31T03:04:10.422Z,0
2017-03-31T03:05:19.315Z,0
2017-03-31T03:06:28.356Z,0
2017-03-31T03:07:37.569Z,0
2017-03-31T03:08:46.781Z,0
2017-03-31T03:09:55.666Z,0
2017-03-31T03:11:04.554Z,0
2017-03-31T03:12:13.818Z,0
2017-03-31T03:13:22.710Z,0
2017-03-31T03:14:31.599Z,0
2017-03-31T03:15:40.812Z,0
2017-03-31T03:16:50.024Z,0
2017-03-31T03:17:59.315Z,0
2017-03-31T03:19:08.527Z,0
2017-03-31T03:20:17.415Z,0
2017-03-31T03:21:26.305Z,0
2017-03-31T03:22:35.193Z,0
2017-03-31T03:23:44.136Z,0
2017-03-31T03:24:53.022Z,0
2017-03-31T03:26:01.910Z,0
2017-03-31T03:27:10.801Z,0
2017-03-31T03:28:19.691Z,0
2017-03-31T03:29:28.984Z,0
2017-03-31T03:30:38.200Z,0
2017-03-31T03:31:47.089Z,0
2017-03-31T03:32:55.972Z,0
2017-03-31T03:34:04.866Z,0
2017-03-31T03:35:14.231Z,0
2017-03-31T03:36:23.451Z,0
2017-03-31T03:37:32.338Z,0
2017-03-31T03:38:41.228Z,0
2017-03-31T03:39:50.120Z,0
2017-03-31T03:40:59.256Z,0
2017-03-31T03:42:08.475Z,0
2017-03-31T03:43:17.360Z,0
2017-03-31T03:44:26.244Z,0
2017-03-31T03:45:35.454Z,0
2017-03-31T03:46:44.397Z,0
2017-03-31T03:47:53.321Z,0
2017-03-31T03:49:02.210Z,0
2017-03-31T03:50:11.103Z,0
2017-03-31T03:51:20.317Z,0
2017-03-31T03:52:29.234Z,0
2017-03-31T03:53:38.443Z,0
2017-03-31T03:54:47.327Z,0
2017-03-31T03:55:56.544Z,0
2017-03-31T03:57:05.431Z,0
2017-03-31T03:58:14.641Z,0
2017-03-31T03:59:23.528Z,0
2017-03-31T04:00:32.744Z,0
2017-03-31T04:01:41.632Z,0
2017-03-31T04:02:50.521Z,0
2017-03-31T04:03:59.505Z,0
2017-03-31T04:05:08.718Z,0
2017-03-31T04:06:17.612Z,0
2017-03-31T04:07:26.856Z,0
2017-03-31T04:08:35.745Z,0
2017-03-31T04:09:44.785Z,0
2017-03-31T04:10:53.677Z,0
2017-03-31T04:12:02.888Z,0
2017-03-31T04:13:12.101Z,0
2017-03-31T04:14:21.293Z,0
2017-03-31T04:15:30.334Z,0
2017-03-31T04:16:39.236Z,0
2017-03-31T04:17:48.133Z,0
2017-03-31T04:18:57.034Z,0
2017-03-31T04:20:06.249Z,0
2017-03-31T04:21:15.387Z,0
2017-03-31T04:22:24.599Z,0
2017-03-31T04:23:33.815Z,0
2017-03-31T04:24:42.702Z,0
2017-03-31T04:25:51.914Z,0
2017-03-31T04:27:00.952Z,0
2017-03-31T04:28:10.164Z,0
2017-03-31T04:29:19.053Z,0
2017-03-31T04:30:27.945Z,0
2017-03-31T04:31:36.844Z,0
2017-03-31T04:32:45.732Z,4
2017-03-31T04:33:54.629Z,4
2017-03-31T04:35:03.516Z,0
2017-03-31T04:36:12.731Z,4
2017-03-31T04:37:21.624Z,8
2017-03-31T04:38:30.613Z,8
2017-03-31T04:39:40.151Z,8
2017-03-31T04:40:49.043Z,12
2017-03-31T04:41:57.929Z,12
2017-03-31T04:43:06.818Z,16
2017-03-31T04:44:15.757Z,16
2017-03-31T04:45:24.647Z,24
2017-03-31T04:46:33.866Z,28
2017-03-31T04:47:42.754Z,32
2017-03-31T04:48:51.641Z,36
2017-03-31T04:50:00.721Z,40
2017-03-31T04:51:09.932Z,52
2017-03-31T04:52:18.823Z,60
2017-03-31T04:53:27.708Z,68
2017-03-31T04:54:36.916Z,80
2017-03-31T04:55:45.909Z,92
2017-03-31T04:56:55.119Z,108
2017-03-31T04:58:04.326Z,120
2017-03-31T04:59:13.216Z,132
2017-03-31T05:00:22.103Z,148
2017-03-31T05:01:31.046Z,156
2017-03-31T05:02:39.962Z,176
2017-03-31T05:03:49.177Z,192
2017-03-31T05:04:58.395Z,212
2017-03-31T05:06:07.284Z,232
2017-03-31T05:07:16.334Z,256
2017-03-31T05:08:25.228Z,284
2017-03-31T05:09:34.769Z,308
2017-03-31T05:10:43.660Z,336
2017-03-31T05:11:52.553Z,360
2017-03-31T05:13:01.947Z,388
2017-03-31T05:14:11.166Z,416
2017-03-31T05:15:20.052Z,444
2017-03-31T05:16:28.940Z,472
2017-03-31T05:17:38.158Z,500
2017-03-31T05:18:47.047Z,532
2017-03-31T05:19:56.585Z,564
2017-03-31T05:21:05.477Z,596
2017-03-31T05:22:14.418Z,624
2017-03-31T05:23:23.961Z,656
2017-03-31T05:24:32.999Z,688
2017-03-31T05:25:41.886Z,728
2017-03-31T05:26:50.778Z,772
2017-03-31T05:27:59.670Z,812
2017-03-31T05:29:08.559Z,860
2017-03-31T05:30:17.650Z,916
2017-03-31T05:31:26.549Z,972
2017-03-31T05:32:35.443Z,1040
2017-03-31T05:33:44.334Z,1112
2017-03-31T05:34:53.224Z,1180
2017-03-31T05:36:02.262Z,1260
2017-03-31T05:37:11.156Z,1344
2017-03-31T05:38:20.050Z,1432
2017-03-31T05:39:28.937Z,1520
2017-03-31T05:40:38.159Z,1612
2017-03-31T05:41:47.102Z,1704
2017-03-31T05:42:55.994Z,1800
2017-03-31T05:44:04.882Z,1900
2017-03-31T05:45:13.770Z,1992
2017-03-31T05:46:22.661Z,2072
2017-03-31T05:47:31.924Z,2152
2017-03-31T05:48:40.813Z,2240
2017-03-31T05:49:49.715Z,2316
2017-03-31T05:50:58.932Z,2380
2017-03-31T05:52:08.147Z,2440
2017-03-31T05:53:17.089Z,2488
2017-03-31T05:54:25.983Z,2532
2017-03-31T05:55:34.878Z,2584
2017-03-31T05:56:43.770Z,2636
2017-03-31T05:57:52.664Z,2688
2017-03-31T05:59:01.803Z,2736
2017-03-31T06:00:10.695Z,2800
2017-03-31T06:01:19.583Z,2868
2017-03-31T06:02:28.478Z,2904
2017-03-31T06:03:37.368Z,2960
2017-03-31T06:04:46.362Z,3044
2017-03-31T06:05:55.249Z,3160
2017-03-31T06:07:04.145Z,3300
2017-03-31T06:08:13.042Z,3480
2017-03-31T06:09:21.932Z,3628
2017-03-31T06:10:30.870Z,3764
2017-03-31T06:11:39.760Z,3912
2017-03-31T06:12:48.655Z,4024
2017-03-31T06:13:57.548Z,4124
2017-03-31T06:15:06.770Z,4196
2017-03-31T06:16:16.036Z,4268
2017-03-31T06:17:24.935Z,4356
2017-03-31T06:18:33.824Z,4408
2017-03-31T06:19:42.742Z,4428
2017-03-31T06:20:51.954Z,4488
2017-03-31T06:22:01.319Z,4540
2017-03-31T06:23:10.531Z,4524
2017-03-31T06:24:19.417Z,4536
2017-03-31T06:25:28.304Z,4552
2017-03-31T06:26:37.192Z,4556
2017-03-31T06:27:46.081Z,4520
2017-03-31T06:28:54.970Z,4468
2017-03-31T06:30:04.207Z,4408
2017-03-31T06:31:13.421Z,4328
2017-03-31T06:32:22.315Z,4236
2017-03-31T06:33:31.354Z,4156
2017-03-31T06:34:40.243Z,4108
2017-03-31T06:35:49.130Z,4092
2017-03-31T06:36:58.019Z,4100
2017-03-31T06:38:07.233Z,4112
2017-03-31T06:39:16.278Z,4152
2017-03-31T06:40:25.164Z,4248
2017-03-31T06:41:34.385Z,4376
2017-03-31T06:42:43.276Z,4480
2017-03-31T06:43:52.203Z,4640
2017-03-31T06:45:02.126Z,4756
2017-03-31T06:46:11.337Z,4736
2017-03-31T06:47:20.227Z,4620
2017-03-31T06:48:29.123Z,4492
2017-03-31T06:49:38.013Z,4376
2017-03-31T06:50:47.377Z,4324
2017-03-31T06:51:56.285Z,4324
2017-03-31T06:53:05.501Z,4360
2017-03-31T06:54:14.395Z,4340
2017-03-31T06:55:23.290Z,4364
2017-03-31T06:56:32.553Z,4396
2017-03-31T06:57:41.441Z,4428
2017-03-31T06:58:50.333Z,4424
2017-03-31T06:59:59.222Z,4428
2017-03-31T07:01:08.109Z,4464
2017-03-31T07:02:17.151Z,4476
2017-03-31T07:03:26.041Z,4464
2017-03-31T07:04:34.932Z,4436
2017-03-31T07:05:43.821Z,4412
2017-03-31T07:06:53.038Z,4376
2017-03-31T07:08:02.146Z,4344
2017-03-31T07:09:11.389Z,4300
2017-03-31T07:10:20.280Z,4292
2017-03-31T07:11:29.171Z,4308
2017-03-31T07:12:38.383Z,4344
2017-03-31T07:13:47.321Z,4396
2017-03-31T07:14:56.211Z,4420
2017-03-31T07:16:05.137Z,4428
2017-03-31T07:17:14.027Z,4468
2017-03-31T07:18:22.914Z,4512
2017-03-31T07:19:32.055Z,4564
2017-03-31T07:20:40.950Z,4612
2017-03-31T07:21:49.840Z,4620
2017-03-31T07:22:58.731Z,4668
2017-03-31T07:24:07.628Z,4684
2017-03-31T07:25:16.670Z,4676
2017-03-31T07:26:25.884Z,4740
2017-03-31T07:27:34.775Z,4820
2017-03-31T07:28:43.666Z,4884
2017-03-31T07:29:52.558Z,4940
2017-03-31T07:31:01.926Z,4980
2017-03-31T07:32:10.825Z,5052
2017-03-31T07:33:20.035Z,5080
2017-03-31T07:34:28.936Z,5104
2017-03-31T07:35:38.483Z,5172
2017-03-31T07:36:48.002Z,5216
2017-03-31T07:37:56.891Z,5276
2017-03-31T07:39:05.783Z,5332
2017-03-31T07:40:14.669Z,5348
2017-03-31T07:41:23.564Z,5312
2017-03-31T07:42:32.453Z,5296
2017-03-31T07:43:41.344Z,5284
2017-03-31T07:44:51.209Z,5292
2017-03-31T07:46:00.098Z,5288
2017-03-31T07:47:08.988Z,5292
2017-03-31T07:48:18.132Z,5316
2017-03-31T07:49:27.350Z,5352
2017-03-31T07:50:36.261Z,5396
2017-03-31T07:51:45.476Z,5436
2017-03-31T07:52:54.365Z,5464
2017-03-31T07:54:03.730Z,5524
2017-03-31T07:55:12.624Z,5576
2017-03-31T07:56:21.565Z,5588
2017-03-31T07:57:30.455Z,5640
2017-03-31T07:58:39.347Z,5720
2017-03-31T07:59:48.485Z,5804
2017-03-31T08:00:57.372Z,5912
2017-03-31T08:02:06.261Z,6012
2017-03-31T08:03:15.157Z,6108
2017-03-31T08:04:24.045Z,6208
2017-03-31T08:05:33.410Z,6356
2017-03-31T08:06:42.300Z,6496
2017-03-31T08:07:51.188Z,6640
2017-03-31T08:09:00.077Z,6804
2017-03-31T08:10:08.976Z,6968
2017-03-31T08:11:18.236Z,7108
2017-03-31T08:12:27.456Z,7216
2017-03-31T08:13:36.350Z,7340
2017-03-31T08:14:45.568Z,7464
2017-03-31T08:15:54.466Z,7560
2017-03-31T08:17:03.559Z,7652
2017-03-31T08:18:12.455Z,7736
2017-03-31T08:19:21.349Z,7820
2017-03-31T08:20:30.242Z,8008
2017-03-31T08:21:39.460Z,8180
2017-03-31T08:22:49.254Z,8312
2017-03-31T08:23:58.496Z,8424
2017-03-31T08:25:07.398Z,8544
2017-03-31T08:26:16.289Z,8676
2017-03-31T08:27:25.180Z,8812
2017-03-31T08:28:34.444Z,8920
2017-03-31T08:29:43.340Z,9036
2017-03-31T08:30:52.251Z,9212
2017-03-31T08:32:01.483Z,9384
2017-03-31T08:33:10.376Z,9564
2017-03-31T08:34:19.622Z,9732
2017-03-31T08:35:28.846Z,9880
2017-03-31T08:36:37.741Z,10000
2017-03-31T08:37:46.963Z,10096
2017-03-31T08:38:55.860Z,10180
2017-03-31T08:40:05.242Z,10172
2017-03-31T08:41:14.147Z,10116
2017-03-31T08:42:23.052Z,10048
2017-03-31T08:43:31.960Z,9876
2017-03-31T08:44:40.863Z,9704
2017-03-31T08:45:50.067Z,9536
2017-03-31T08:46:58.966Z,9412
2017-03-31T08:48:08.191Z,9276
2017-03-31T08:49:17.098Z,9148
2017-03-31T08:50:25.994Z,9052
2017-03-31T08:51:35.040Z,9088
2017-03-31T08:52:43.935Z,9104
2017-03-31T08:53:53.479Z,9092
2017-03-31T08:55:02.697Z,9080
2017-03-31T08:56:11.587Z,9036
2017-03-31T08:57:20.580Z,9028
2017-03-31T08:58:29.473Z,8988
2017-03-31T08:59:38.370Z,8904
2017-03-31T09:00:47.267Z,8840
2017-03-31T09:01:56.175Z,8784
2017-03-31T09:03:05.479Z,8700
2017-03-31T09:04:14.378Z,8552
2017-03-31T09:05:23.592Z,8488
2017-03-31T09:06:32.810Z,8420
2017-03-31T09:07:41.708Z,8240
2017-03-31T09:08:50.852Z,8208
2017-03-31T09:09:59.753Z,8188
2017-03-31T09:11:08.691Z,8136
2017-03-31T09:12:17.590Z,8028
2017-03-31T09:13:26.804Z,8020
2017-03-31T09:14:35.956Z,8040
2017-03-31T09:15:44.875Z,7972
2017-03-31T09:16:53.772Z,8056
2017-03-31T09:18:02.661Z,8176
2017-03-31T09:19:11.556Z,8308
2017-03-31T09:20:20.499Z,8384
2017-03-31T09:21:29.404Z,8384
2017-03-31T09:22:38.300Z,8452
2017-03-31T09:23:47.544Z,8480
2017-03-31T09:24:56.439Z,8504
2017-03-31T09:26:05.346Z,8500
2017-03-31T09:27:14.240Z,8436
2017-03-31T09:28:23.130Z,8488
2017-03-31T09:29:32.021Z,8512
2017-03-31T09:30:40.913Z,8620
2017-03-31T09:31:49.908Z,8660
2017-03-31T09:32:59.128Z,8684
2017-03-31T09:34:08.023Z,8680
2017-03-31T09:35:16.917Z,8776
2017-03-31T09:36:25.815Z,8892
2017-03-31T09:37:34.911Z,8932
2017-03-31T09:38:44.137Z,8980
2017-03-31T09:39:53.035Z,9028
2017-03-31T09:41:01.928Z,9072
2017-03-31T09:42:10.826Z,9140
2017-03-31T09:43:19.869Z,9096
2017-03-31T09:44:29.087Z,9084
2017-03-31T09:45:38.304Z,9052
2017-03-31T09:46:47.198Z,9004
2017-03-31T09:47:56.105Z,8968
2017-03-31T09:49:05.414Z,8948
2017-03-31T09:50:14.309Z,8848
2017-03-31T09:51:23.203Z,8800
2017-03-31T09:52:32.097Z,8752
2017-03-31T09:53:40.988Z,8636
2017-03-31T09:54:50.183Z,8496
2017-03-31T09:55:59.405Z,8404
2017-03-31T09:57:08.629Z,8484
2017-03-31T09:58:17.528Z,8584
2017-03-31T09:59:26.425Z,8700
2017-03-31T10:00:35.321Z,8768
2017-03-31T10:01:44.542Z,8796
2017-03-31T10:02:53.434Z,8904
2017-03-31T10:04:02.375Z,8992
2017-03-31T10:05:11.271Z,8992
2017-03-31T10:06:20.598Z,9028
2017-03-31T10:07:29.493Z,9080
2017-03-31T10:08:38.387Z,9124
2017-03-31T10:09:47.284Z,9176
2017-03-31T10:10:56.505Z,9296
2017-03-31T10:12:05.554Z,9508
2017-03-31T10:13:14.451Z,9680
2017-03-31T10:14:23.548Z,9884
2017-03-31T10:15:32.446Z,10088
2017-03-31T10:16:41.987Z,10312
2017-03-31T10:17:51.029Z,10540
2017-03-31T10:18:59.922Z,10780
2017-03-31T10:20:08.819Z,10868
2017-03-31T10:21:17.722Z,10948
2017-03-31T10:22:26.618Z,10964
2017-03-31T10:23:35.568Z,10940
2017-03-31T10:24:44.468Z,10848
2017-03-31T10:25:53.366Z,10792
2017-03-31T10:27:02.267Z,10852
2017-03-31T10:28:11.164Z,10992
2017-03-31T10:29:20.213Z,11164
2017-03-31T10:30:29.440Z,11400
2017-03-31T10:31:38.334Z,11708
2017-03-31T10:32:47.230Z,12052
2017-03-31T10:33:56.127Z,12392
2017-03-31T10:35:05.497Z,12704
2017-03-31T10:36:14.755Z,12956
2017-03-31T10:37:23.654Z,13144
2017-03-31T10:38:32.547Z,13184
2017-03-31T10:39:41.445Z,13032
2017-03-31T10:40:50.488Z,12872
2017-03-31T10:41:59.716Z,12880
2017-03-31T10:43:08.939Z,12904
2017-03-31T10:44:17.839Z,12828
2017-03-31T10:45:26.736Z,12796
2017-03-31T10:46:35.884Z,12864
2017-03-31T10:47:44.784Z,12884
2017-03-31T10:48:53.682Z,12996
2017-03-31T10:50:02.912Z,13316
2017-03-31T10:51:11.809Z,13692
2017-03-31T10:52:20.966Z,14012
2017-03-31T10:53:29.869Z,14412
2017-03-31T10:54:38.766Z,14652
2017-03-31T10:55:47.665Z,14708
2017-03-31T10:56:56.566Z,14576
2017-03-31T10:58:05.764Z,14568
2017-03-31T10:59:14.663Z,14272
2017-03-31T11:00:23.555Z,14388
2017-03-31T11:01:32.454Z,14196
2017-03-31T11:02:41.680Z,13896
2017-03-31T11:03:50.778Z,13588
2017-03-31T11:04:59.671Z,13540
2017-03-31T11:06:08.903Z,13208
2017-03-31T11:07:17.809Z,13020
2017-03-31T11:08:26.711Z,12600
2017-03-31T11:09:35.768Z,12404
2017-03-31T11:10:44.998Z,12180
2017-03-31T11:11:54.231Z,12112
2017-03-31T11:13:03.131Z,11988
2017-03-31T11:14:12.028Z,12008
2017-03-31T11:15:21.405Z,12184
2017-03-31T11:16:30.678Z,12324
2017-03-31T11:17:39.593Z,12440
2017-03-31T11:18:48.488Z,12652
2017-03-31T11:19:57.384Z,12764
2017-03-31T11:21:06.858Z,12796
2017-03-31T11:22:16.093Z,12948
2017-03-31T11:23:24.987Z,13020
2017-03-31T11:24:33.887Z,13284
2017-03-31T11:25:42.798Z,13512
2017-03-31T11:26:52.174Z,13596
2017-03-31T11:28:01.072Z,13644
2017-03-31T11:29:09.972Z,13788
2017-03-31T11:30:18.874Z,13924
2017-03-31T11:31:27.776Z,14004
2017-03-31T11:32:36.722Z,14112
2017-03-31T11:33:45.619Z,14332
2017-03-31T11:34:54.518Z,14360
2017-03-31T11:36:03.416Z,14292
2017-03-31T11:37:12.407Z,14420
2017-03-31T11:38:21.915Z,14600
2017-03-31T11:39:30.813Z,14860
2017-03-31T11:40:39.713Z,15144
2017-03-31T11:41:48.646Z,15384
2017-03-31T11:42:57.546Z,15684
2017-03-31T11:44:06.440Z,15960
2017-03-31T11:45:15.663Z,16576
2017-03-31T11:46:24.565Z,17056
2017-03-31T11:47:33.471Z,17376
2017-03-31T11:48:42.365Z,17152
2017-03-31T11:49:51.566Z,16800
2017-03-31T11:51:01.438Z,16672
2017-03-31T11:52:10.338Z,16960
2017-03-31T11:53:19.236Z,16960
2017-03-31T11:54:28.145Z,16704
2017-03-31T11:55:37.203Z,16256
2017-03-31T11:56:46.492Z,17024
2017-03-31T11:57:55.471Z,17024
2017-03-31T11:59:04.710Z,17408
2017-03-31T12:00:13.610Z,18272
2017-03-31T12:01:22.761Z,19648
2017-03-31T12:02:31.676Z,30336
2017-03-31T12:03:40.576Z,25952
2017-03-31T12:04:49.475Z,23488
2017-03-31T12:05:59.032Z,28768
2017-03-31T12:07:07.986Z,29824
2017-03-31T12:08:16.886Z,34496
2017-03-31T12:09:26.115Z,30016
2017-03-31T12:10:35.348Z,29568
2017-03-31T12:11:44.252Z,25824
2017-03-31T12:12:53.203Z,26560
2017-03-31T12:14:02.103Z,37568
2017-03-31T12:15:11.008Z,26656
2017-03-31T12:16:19.912Z,26240
2017-03-31T12:17:29.139Z,28384
2017-03-31T12:18:38.091Z,21376
2017-03-31T12:19:46.998Z,28032
2017-03-31T12:20:55.898Z,33120
2017-03-31T12:22:05.454Z,32192
2017-03-31T12:23:14.680Z,37984
2017-03-31T12:24:23.992Z,41984
2017-03-31T12:25:33.542Z,32704
2017-03-31T12:26:42.444Z,25696
2017-03-31T12:27:51.346Z,26240
2017-03-31T12:29:00.248Z,25216
2017-03-31T12:30:09.212Z,30464
2017-03-31T12:31:18.115Z,29120
2017-03-31T12:32:27.016Z,26528
2017-03-31T12:33:35.919Z,24256
2017-03-31T12:34:44.827Z,20960
2017-03-31T12:35:53.891Z,21888
2017-03-31T12:37:02.795Z,44288
2017-03-31T12:38:11.697Z,36256
2017-03-31T12:39:20.598Z,29824
2017-03-31T12:40:29.507Z,26688
2017-03-31T12:41:38.918Z,44800
2017-03-31T12:42:47.841Z,39136
2017-03-31T12:43:56.744Z,32416
2017-03-31T12:45:05.971Z,30592
2017-03-31T12:46:15.201Z,35744
2017-03-31T12:47:24.158Z,34144
2017-03-31T12:48:33.062Z,38048
2017-03-31T12:49:41.970Z,45920
2017-03-31T12:50:51.266Z,38848
2017-03-31T12:52:00.181Z,40320
2017-03-31T12:53:09.233Z,36352
2017-03-31T12:54:18.139Z,35552
2017-03-31T12:55:27.049Z,25344
2017-03-31T12:56:35.958Z,23584
2017-03-31T12:57:44.859Z,25280
2017-03-31T12:58:54.061Z,24864
2017-03-31T13:00:02.965Z,30080
2017-03-31T13:01:12.109Z,28096
2017-03-31T13:02:21.020Z,24096
2017-03-31T13:03:29.935Z,21248
2017-03-31T13:04:39.036Z,18176
2017-03-31T13:05:47.951Z,19648
2017-03-31T13:06:56.883Z,25472
2017-03-31T13:08:05.792Z,26016
2017-03-31T13:09:15.029Z,27904
2017-03-31T13:10:24.560Z,30208
2017-03-31T13:11:33.467Z,27200
2017-03-31T13:12:42.373Z,31008
2017-03-31T13:13:51.601Z,30112
2017-03-31T13:15:00.837Z,27104
2017-03-31T13:16:09.853Z,23328
2017-03-31T13:17:18.762Z,25888
2017-03-31T13:18:27.662Z,31328
2017-03-31T13:19:36.566Z,27104
2017-03-31T13:20:46.694Z,26912
2017-03-31T13:21:55.750Z,27168
2017-03-31T13:23:04.650Z,26016
2017-03-31T13:24:13.565Z,26368
2017-03-31T13:25:22.532Z,23232
2017-03-31T13:26:31.779Z,21344
2017-03-31T13:27:40.833Z,22752
2017-03-31T13:28:49.736Z,23776
2017-03-31T13:29:59.289Z,25920
2017-03-31T13:31:08.518Z,25696
2017-03-31T13:32:17.419Z,22656
2017-03-31T13:33:26.483Z,21920
2017-03-31T13:34:35.383Z,22944
2017-03-31T13:35:44.285Z,26304
2017-03-31T13:36:53.190Z,31904
2017-03-31T13:38:02.096Z,30848
2017-03-31T13:39:11.473Z,28928
2017-03-31T13:40:20.374Z,29184
2017-03-31T13:41:29.606Z,31200
2017-03-31T13:42:38.509Z,36096
2017-03-31T13:43:47.412Z,43936
2017-03-31T13:44:56.615Z,46464
2017-03-31T13:46:05.516Z,50016
2017-03-31T13:47:14.424Z,48736
2017-03-31T13:48:23.325Z,45664
2017-03-31T13:49:32.228Z,57312
2017-03-31T13:50:41.521Z,50240
2017-03-31T13:51:50.431Z,37088
2017-03-31T13:52:59.660Z,41216
2017-03-31T13:54:08.571Z,42496
2017-03-31T13:55:18.126Z,46240
2017-03-31T13:56:27.180Z,43136
2017-03-31T13:57:36.089Z,45792
2017-03-31T13:58:44.993Z,46848
2017-03-31T13:59:53.902Z,50912
2017-03-31T14:01:03.137Z,52000
2017-03-31T14:02:12.049Z,44160
2017-03-31T14:03:20.964Z,46176
2017-03-31T14:04:30.201Z,52544
2017-03-31T14:05:39.110Z,52896
2017-03-31T14:06:48.016Z,54688
2017-03-31T14:07:57.402Z,54944
2017-03-31T14:09:06.313Z,49600
2017-03-31T14:10:15.226Z,51264
2017-03-31T14:11:24.137Z,56448
2017-03-31T14:12:33.372Z,56224
2017-03-31T14:13:42.429Z,58592
2017-03-31T14:14:51.664Z,58688
2017-03-31T14:16:00.904Z,56032
2017-03-31T14:17:09.819Z,58240
2017-03-31T14:18:18.727Z,59552
2017-03-31T14:19:27.646Z,60352
2017-03-31T14:20:36.883Z,59136
2017-03-31T14:21:45.798Z,56640
2017-03-31T14:22:54.707Z,55200
2017-03-31T14:24:03.623Z,56448
2017-03-31T14:25:12.582Z,53120
2017-03-31T14:26:21.491Z,51712
2017-03-31T14:27:30.407Z,53184
2017-03-31T14:28:39.316Z,55744
2017-03-31T14:29:48.550Z,54848
2017-03-31T14:30:57.760Z,58080
2017-03-31T14:32:06.677Z,54336
2017-03-31T14:33:15.603Z,56000
2017-03-31T14:34:24.856Z,57664
2017-03-31T14:35:33.764Z,53920
2017-03-31T14:36:42.826Z,59808
2017-03-31T14:37:51.737Z,57664
2017-03-31T14:39:00.657Z,60256
2017-03-31T14:40:09.918Z,57952
2017-03-31T14:41:18.829Z,61792
2017-03-31T14:42:28.223Z,62400
2017-03-31T14:43:37.143Z,64320
2017-03-31T14:44:46.054Z,63136
2017-03-31T14:45:55.616Z,62048
2017-03-31T14:47:04.531Z,56576
2017-03-31T14:48:13.742Z,55808
2017-03-31T14:49:22.977Z,54048
2017-03-31T14:50:31.894Z,60576
2017-03-31T14:51:40.805Z,50752
2017-03-31T14:52:49.716Z,41792
2017-03-31T14:53:58.675Z,43040
2017-03-31T14:55:07.586Z,52416
2017-03-31T14:56:16.819Z,53600
2017-03-31T14:57:25.733Z,49568
2017-03-31T14:58:34.647Z,41216
2017-03-31T14:59:43.715Z,32608
2017-03-31T15:00:52.629Z,28512
2017-03-31T15:02:01.540Z,28512
2017-03-31T15:03:10.449Z,31584
2017-03-31T15:04:19.365Z,25472
2017-03-31T15:05:28.425Z,24096
2017-03-31T15:06:37.657Z,23104
2017-03-31T15:07:46.565Z,22240
2017-03-31T15:08:55.481Z,27584
2017-03-31T15:10:04.713Z,32032
2017-03-31T15:11:13.870Z,29728
2017-03-31T15:12:22.779Z,27424
2017-03-31T15:13:31.690Z,26624
2017-03-31T15:14:40.600Z,25472
2017-03-31T15:15:50.156Z,27392
2017-03-31T15:16:59.791Z,33024
2017-03-31T15:18:08.703Z,38016
2017-03-31T15:19:17.609Z,42144
2017-03-31T15:20:26.538Z,36992
2017-03-31T15:21:35.449Z,37760
2017-03-31T15:22:44.703Z,35040
2017-03-31T15:23:53.610Z,36160
2017-03-31T15:25:02.853Z,31712
2017-03-31T15:26:11.760Z,33408
2017-03-31T15:27:20.670Z,30688
2017-03-31T15:28:29.826Z,26400
2017-03-31T15:29:38.729Z,19968
2017-03-31T15:30:47.639Z,17824
2017-03-31T15:31:56.550Z,16832
2017-03-31T15:33:05.458Z,15680
2017-03-31T15:34:14.837Z,14892
2017-03-31T15:35:23.746Z,13648
2017-03-31T15:36:32.647Z,13716
2017-03-31T15:37:41.548Z,14924